Time;durP1;ratioP1;P1;durP2;ratioP2;P2;SDS_P1;SDS_P2;PMS_P1;PMS_P2;Temp;Humidity;BMP_temperature;BMP_pressure;BME280_temperature;BME280_humidity;BME280_pressure;Samples;Min_cycle;Max_cycle;Signal;HPM_P1;HPM_P2
2022/11/05 00:09:45;;;;;;;;;31.25;30.00;;;;;11.07;83.31;101411.94;5001074;28;45423;-76
2022/11/05 00:17:40;;;;;;;;;31.00;31.00;;;;;10.97;83.16;101410.25;5001109;28;45257;-76
2022/11/05 00:20:08;;;;;;;;;34.25;31.25;;;;;10.98;83.26;101414.56;5001133;28;45236;-76
2022/11/05 00:25:18;;;;;;;;;33.50;30.25;;;;;10.89;83.07;101418.19;5001405;28;45234;-76
2022/11/05 00:27:52;;;;;;;;;37.75;33.50;;;;;10.82;83.42;101414.50;4999736;28;45538;-76
2022/11/05 00:30:21;;;;;;;;;43.00;36.00;;;;;10.91;83.18;101426.00;4983130;28;47078;-75
2022/11/05 00:32:48;;;;;;;;;35.75;31.75;;;;;10.85;82.89;101414.19;5000818;28;45403;-76
2022/11/05 00:35:14;;;;;;;;;34.25;31.00;;;;;10.88;82.74;101424.50;5001084;28;45548;-75
2022/11/05 00:37:39;;;;;;;;;37.50;32.50;;;;;10.82;82.76;101420.66;5000658;28;45378;-76
2022/11/05 00:40:05;;;;;;;;;31.25;30.00;;;;;10.75;82.50;101409.00;5000960;28;45450;-76
2022/11/05 00:45:15;;;;;;;;;31.75;27.75;;;;;10.73;83.00;101425.13;5000651;28;45562;-76
2022/11/05 00:50:25;;;;;;;;;29.25;28.25;;;;;10.73;83.30;101426.94;5000696;28;45369;-76
2022/11/05 00:52:56;;;;;;;;;42.25;35.25;;;;;10.69;83.04;101439.69;5000598;28;45209;-75
2022/11/05 00:55:27;;;;;;;;;36.00;32.75;;;;;10.68;83.00;101445.16;5001068;28;45325;-76
2022/11/05 00:57:53;;;;;;;;;38.50;33.50;;;;;10.67;82.96;101436.38;5000712;28;45225;-76
2022/11/05 01:00:19;;;;;;;;;37.75;35.00;;;;;10.73;82.92;101434.91;4999957;28;45300;-76
2022/11/05 01:02:44;;;;;;;;;34.50;33.25;;;;;10.66;82.74;101423.25;5000696;28;45325;-76
2022/11/05 01:05:09;;;;;;;;;38.00;32.25;;;;;10.72;82.79;101436.72;5000722;28;45716;-76
2022/11/05 01:07:35;;;;;;;;;34.25;32.00;;;;;10.72;83.22;101438.56;5000442;28;45566;-76
2022/11/05 01:10:00;;;;;;;;;35.25;32.00;;;;;10.70;82.44;101432.56;4982697;28;47126;-76
2022/11/05 01:12:26;;;;;;;;;30.33;30.33;;;;;10.65;82.22;101435.69;5000407;28;45510;-77
2022/11/05 01:14:51;;;;;;;;;31.50;31.25;;;;;10.63;82.20;101432.38;5000582;28;45384;-76
2022/11/05 01:17:16;;;;;;;;;33.75;31.75;;;;;10.60;82.16;101446.78;5000289;28;45537;-75
2022/11/05 01:19:41;;;;;;;;;34.67;33.00;;;;;10.52;82.52;101451.22;4982481;28;50385;-76
2022/11/05 01:22:07;;;;;;;;;35.25;30.00;;;;;10.46;82.42;101442.91;5000058;28;45368;-76
2022/11/05 01:24:32;;;;;;;;;31.50;31.25;;;;;10.54;82.42;101460.69;5000298;28;45391;-76
2022/11/05 01:26:57;;;;;;;;;28.50;28.50;;;;;10.53;82.49;101450.25;4982557;28;46224;-76
2022/11/05 01:29:23;;;;;;;;;34.00;31.50;;;;;10.50;82.63;101446.06;4999916;28;45368;-76
2022/11/05 01:31:48;;;;;;;;;32.67;28.33;;;;;10.51;82.43;101452.22;5000088;28;45401;-76
2022/11/05 01:34:13;;;;;;;;;29.33;27.67;;;;;10.44;82.51;101436.88;5000200;28;45339;-76
2022/11/05 01:36:38;;;;;;;;;33.00;29.25;;;;;10.47;82.98;101451.69;4999954;28;45559;-76
2022/11/05 01:39:04;;;;;;;;;27.67;23.33;;;;;10.47;83.18;101459.66;4999371;28;52337;-76
2022/11/05 01:41:29;;;;;;;;;31.25;28.75;;;;;10.29;83.53;101435.75;4999967;28;45298;-76
2022/11/05 01:43:58;;;;;;;;;13.00;6.25;;;;;10.40;83.28;101461.25;4999835;28;45495;-76
2022/11/05 01:46:37;;;;;;;;;27.25;25.75;;;;;10.40;83.17;101454.13;4999831;28;45610;-76
2022/11/05 01:49:34;;;;;;;;;30.50;28.00;;;;;10.38;83.29;101449.97;4999853;28;45412;-76
2022/11/05 01:52:02;;;;;;;;;24.67;22.00;;;;;10.38;83.62;101439.31;4999851;28;45325;-76
2022/11/05 01:54:32;;;;;;;;;32.00;30.00;;;;;10.43;83.78;101451.16;5000111;28;45183;-76
2022/11/05 01:57:02;;;;;;;;;29.67;29.67;;;;;10.45;83.91;101448.34;4999825;28;45445;-76
2022/11/05 01:59:33;;;;;;;;;28.75;27.00;;;;;10.42;83.34;101444.16;4999478;28;45468;-77
2022/11/05 02:02:00;;;;;;;;;27.67;26.33;;;;;10.42;83.83;101449.47;4999400;28;45534;-76
2022/11/05 02:04:38;;;;;;;;;26.00;24.00;;;;;10.38;83.62;101437.47;4999864;28;45475;-76
2022/11/05 02:07:06;;;;;;;;;29.00;29.00;;;;;10.38;83.68;101442.78;4999300;28;45406;-76
2022/11/05 02:09:53;;;;;;;;;31.33;27.00;;;;;10.44;83.24;101441.34;4999489;28;46343;-76
2022/11/05 02:12:20;;;;;;;;;26.67;26.67;;;;;10.36;83.36;101434.97;4999311;28;45401;-76
2022/11/05 02:14:45;;;;;;;;;27.67;27.67;;;;;10.23;83.66;101426.59;4999426;28;45377;-76
2022/11/05 02:17:22;;;;;;;;;29.00;25.67;;;;;10.38;83.80;101439.31;4999252;28;47203;-76
2022/11/05 02:20:18;;;;;;;;;26.67;25.67;;;;;10.41;83.19;101438.97;4998224;28;46182;-76
2022/11/05 02:23:09;;;;;;;;;32.00;27.75;;;;;10.36;83.10;101442.94;4981552;28;45309;-76
2022/11/05 02:25:58;;;;;;;;;32.25;27.00;;;;;10.29;83.24;101425.13;4999536;28;45401;-76
2022/11/05 02:28:38;;;;;;;;;27.00;24.50;;;;;10.39;83.26;101441.81;4999347;28;45235;-76
2022/11/05 02:31:16;;;;;;;;;26.67;25.67;;;;;10.31;83.28;101431.97;4999038;28;46237;-76
2022/11/05 02:34:07;;;;;;;;;25.00;23.67;;;;;10.34;83.03;101447.59;4999310;28;45278;-76
2022/11/05 02:36:59;;;;;;;;;26.25;26.25;;;;;10.35;83.00;101443.09;4999174;28;45349;-76
2022/11/05 02:39:34;;;;;;;;;27.75;25.00;;;;;10.35;82.81;101435.97;4997718;28;47211;-76
2022/11/05 02:42:14;;;;;;;;;27.25;24.50;;;;;10.23;83.18;101440.72;4981321;28;47107;-76
2022/11/05 02:44:50;;;;;;;;;29.75;26.00;;;;;10.22;83.39;101436.41;4981022;28;45346;-76
2022/11/05 02:47:18;;;;;;;;;28.25;26.50;;;;;10.37;82.73;101443.78;4999244;28;45346;-76
2022/11/05 02:49:51;;;;;;;;;30.75;28.75;;;;;10.34;82.97;101434.31;4981253;28;46248;-76
2022/11/05 02:52:36;;;;;;;;;25.25;22.75;;;;;10.36;82.43;101448.25;5002500;28;46193;-77
2022/11/05 02:55:17;;;;;;;;;27.67;26.67;;;;;10.34;82.20;101446.75;5002307;28;45324;-77
2022/11/05 02:57:45;;;;;;;;;27.33;24.67;;;;;10.31;82.06;101453.22;5002805;28;45396;-77
2022/11/05 03:00:49;;;;;;;;;24.67;24.33;;;;;10.37;82.09;101457.09;5001960;28;45461;-76
2022/11/05 03:03:33;;;;;;;;;26.00;23.00;;;;;10.37;82.34;101457.09;5002330;28;45662;-76
2022/11/05 03:06:04;;;;;;;;;27.33;25.33;;;;;10.36;82.02;101458.09;5002289;28;45310;-76
2022/11/05 03:08:53;;;;;;;;;27.75;24.50;;;;;10.34;82.23;101452.91;4984669;28;46759;-76
2022/11/05 03:11:21;;;;;;;;;26.33;24.67;;;;;10.26;81.89;101449.38;5001854;28;45449;-76
2022/11/05 03:13:59;;;;;;;;;25.33;24.00;;;;;10.30;82.36;101461.34;5001881;28;45338;-76
2022/11/05 03:16:41;;;;;;;;;20.67;19.00;;;;;10.29;nan;101454.34;4984538;28;45508;-76
2022/11/05 03:19:32;;;;;;;;;18.33;17.00;;;;;10.28;82.27;101447.38;5002259;28;45396;-76
2022/11/05 03:22:10;;;;;;;;;25.33;24.33;;;;;10.26;82.29;101444.88;5001977;28;45310;-76
2022/11/05 03:24:41;;;;;;;;;22.00;19.67;;;;;10.24;82.16;101436.25;5000690;28;47528;-76
2022/11/05 03:27:14;;;;;;;;;24.00;23.00;;;;;10.26;82.17;101449.38;4984285;28;45363;-76
2022/11/05 03:29:48;;;;;;;;;27.00;26.00;;;;;10.20;82.24;101437.53;5000475;28;45322;-77
2022/11/05 03:32:16;;;;;;;;;27.00;24.67;;;;;10.25;82.26;101453.00;5001931;28;45311;-76
2022/11/05 03:34:57;;;;;;;;;28.67;27.00;;;;;10.21;82.32;101445.34;5001522;28;45313;-76
2022/11/05 03:37:26;;;;;;;;;26.00;23.00;;;;;10.16;82.36;101444.13;5001864;28;45411;-76
2022/11/05 03:39:57;;;;;;;;;23.33;21.33;;;;;10.15;82.50;101437.16;5001855;28;45455;-77
2022/11/05 03:42:27;;;;;;;;;23.00;21.33;;;;;10.20;82.38;101448.13;5001987;28;46380;-76
2022/11/05 03:44:58;;;;;;;;;28.33;26.67;;;;;10.17;82.70;101433.34;5001339;28;45480;-76
2022/11/05 03:47:31;;;;;;;;;20.33;19.67;;;;;10.16;82.56;101437.00;5001765;28;45326;-76
2022/11/05 03:50:13;;;;;;;;;23.00;21.67;;;;;10.19;82.34;101439.34;5001779;28;45502;-77
2022/11/05 03:52:46;;;;;;;;;19.00;19.00;;;;;10.18;82.74;101437.66;5001640;28;45383;-76
2022/11/05 03:55:12;;;;;;;;;24.00;22.67;;;;;10.17;82.27;101429.84;5001409;28;45436;-76
2022/11/05 03:57:42;;;;;;;;;19.33;19.33;;;;;10.20;82.66;101430.38;5001592;28;45293;-77
2022/11/05 04:00:09;;;;;;;;;21.33;21.33;;;;;10.14;82.77;101416.91;5001324;28;45239;-77
2022/11/05 04:02:36;;;;;;;;;22.33;20.00;;;;;10.18;82.94;101429.69;5001393;28;45294;-76
2022/11/05 04:05:02;;;;;;;;;22.00;20.00;;;;;10.13;83.44;101421.38;4980070;28;47402;-76
2022/11/05 04:18:23;;;;;;;;;24.00;22.00;;;;;10.17;83.47;101422.72;5001181;28;45346;-76
2022/11/05 04:26:22;;;;;;;;;25.33;24.67;;;;;10.21;84.38;101453.31;5000907;28;45215;-77
2022/11/05 04:31:34;;;;;;;;;20.67;20.33;;;;;10.17;83.78;101454.59;5001246;28;45313;-76
2022/11/05 04:33:59;;;;;;;;;24.33;18.33;;;;;10.17;84.00;101459.91;5000900;28;45277;-77
2022/11/05 04:36:24;;;;;;;;;19.00;18.00;;;;;10.19;83.76;101457.94;5000913;28;45302;-77
2022/11/05 04:38:50;;;;;;;;;23.67;22.67;;;;;10.21;83.98;101463.13;5001033;28;45345;-77
2022/11/05 04:41:16;;;;;;;;;24.00;19.67;;;;;10.23;84.31;101466.44;5000903;28;45234;-77
2022/11/05 04:43:42;;;;;;;;;24.33;22.67;;;;;10.10;84.08;101450.91;4979623;28;47201;-77
2022/11/05 04:46:08;;;;;;;;;22.33;19.33;;;;;10.27;84.01;101474.94;4977987;28;47243;-77
2022/11/05 04:48:33;;;;;;;;;23.00;23.00;;;;;10.29;83.86;101475.59;5000941;28;45418;-77
2022/11/05 04:50:59;;;;;;;;;20.33;20.00;;;;;10.17;83.78;101451.94;5001112;28;45607;-77
2022/11/05 04:53:24;;;;;;;;;19.00;18.00;;;;;10.29;83.91;101476.44;5000528;28;45633;-77
2022/11/05 04:55:50;;;;;;;;;22.33;20.00;;;;;10.24;83.85;101465.47;5000773;28;46209;-77
2022/11/05 04:58:15;;;;;;;;;20.00;17.00;;;;;10.27;83.90;101466.97;5000659;28;45452;-78
2022/11/05 05:00:40;;;;;;;;;19.00;19.00;;;;;10.34;84.01;101470.69;5000878;28;45435;-77
2022/11/05 05:03:05;;;;;;;;;22.00;20.00;;;;;10.27;84.18;101459.00;5000455;28;45347;-77
2022/11/05 05:05:31;;;;;;;;;25.67;21.33;;;;;10.31;84.31;101466.50;5000549;28;45329;-78
2022/11/05 05:08:03;;;;;;;;;16.00;15.67;;;;;10.37;84.55;101465.06;4999227;28;45735;-77
2022/11/05 05:10:29;;;;;;;;;24.00;20.33;;;;;10.37;84.63;101457.09;5000495;28;45285;-77
2022/11/05 05:12:55;;;;;;;;;20.00;20.00;;;;;10.47;84.78;101460.50;5000013;28;45361;-77
2022/11/05 05:15:21;;;;;;;;;20.33;19.33;;;;;10.50;85.42;101469.97;4995549;28;48175;-78
2022/11/05 05:17:51;;;;;;;;;21.67;19.33;;;;;10.54;85.00;101465.19;4999742;28;45399;-78
2022/11/05 05:23:00;;;;;;;;;17.67;17.00;;;;;10.37;85.25;101467.72;5000180;28;45354;-76
2022/11/05 05:25:26;;;;;;;;;22.67;22.67;;;;;10.49;85.54;101497.56;4979260;28;47033;-77
2022/11/05 05:27:51;;;;;;;;;19.00;19.00;;;;;10.53;85.77;101482.16;4998868;28;45227;-78
2022/11/05 05:30:17;;;;;;;;;21.67;19.00;;;;;10.55;85.82;101486.31;5000209;28;45313;-77
2022/11/05 05:32:42;;;;;;;;;16.33;14.00;;;;;10.60;85.84;101496.47;5000238;28;45392;-77
2022/11/05 05:35:08;;;;;;;;;23.00;21.00;;;;;10.59;85.77;101492.97;5000122;28;46268;-77
2022/11/05 05:37:34;;;;;;;;;19.00;15.00;;;;;10.67;85.74;101500.19;4999997;28;45278;-77
2022/11/05 05:39:59;;;;;;;;;19.67;18.00;;;;;10.69;85.32;101497.38;5000127;28;45311;-77
2022/11/05 05:42:24;;;;;;;;;21.00;20.00;;;;;10.67;85.22;101494.00;4982338;28;46999;-77
2022/11/05 05:44:50;;;;;;;;;19.00;18.67;;;;;10.71;84.96;101500.69;4999388;28;45506;-77
2022/11/05 05:47:15;;;;;;;;;19.67;15.00;;;;;10.67;85.05;101486.88;4998825;28;45481;-77
2022/11/05 05:49:40;;;;;;;;;20.33;19.33;;;;;10.68;84.59;101483.22;4982522;28;45440;-77
2022/11/05 05:52:06;;;;;;;;;17.33;16.67;;;;;10.71;84.45;101492.72;5006987;28;45355;-77
2022/11/05 05:54:31;;;;;;;;;21.67;20.67;;;;;10.70;84.46;101493.72;4999698;28;45412;-77
2022/11/05 05:56:56;;;;;;;;;16.00;14.67;;;;;10.69;84.47;101486.72;4982046;28;45758;-77
2022/11/05 05:59:22;;;;;;;;;18.00;18.00;;;;;10.75;84.70;101491.44;4999801;28;45400;-76
2022/11/05 06:01:47;;;;;;;;;17.33;17.00;;;;;10.75;84.62;101490.59;4999415;28;45276;-78
2022/11/05 06:04:13;;;;;;;;;19.67;16.33;;;;;10.70;84.74;101483.91;4978439;28;47617;-77
2022/11/05 06:06:41;;;;;;;;;17.67;16.00;;;;;10.83;85.07;101493.28;4991700;28;45393;-77
2022/11/05 06:09:06;;;;;;;;;15.33;14.00;;;;;10.86;84.66;101488.50;4999520;28;45274;-77
2022/11/05 06:11:32;;;;;;;;;16.00;16.00;;;;;10.89;84.83;101483.84;4999472;28;45278;-77
2022/11/05 06:13:57;;;;;;;;;17.33;17.33;;;;;10.96;85.32;101495.53;4999220;28;45210;-78
2022/11/05 06:16:22;;;;;;;;;16.33;14.33;;;;;10.95;85.01;101494.69;4999481;28;45167;-77
2022/11/05 06:18:48;;;;;;;;;19.67;13.00;;;;;10.94;85.23;101493.03;4999769;28;45159;-78
2022/11/05 06:21:16;;;;;;;;;15.00;15.00;;;;;11.01;84.91;101511.00;4999442;28;45574;-77
2022/11/05 06:23:42;;;;;;;;;15.33;15.00;;;;;11.03;85.07;101503.69;4999391;28;45420;-77
2022/11/05 06:26:12;;;;;;;;;14.33;13.33;;;;;10.98;84.90;101496.19;4998140;28;45556;-78
2022/11/05 06:28:38;;;;;;;;;13.00;13.00;;;;;11.06;84.58;101508.69;4998143;28;45334;-79
2022/11/05 06:31:03;;;;;;;;;13.00;13.00;;;;;11.10;84.36;101518.03;4999258;28;45206;-79
2022/11/05 06:33:28;;;;;;;;;13.33;13.33;;;;;11.06;84.60;101511.34;4999321;28;45751;-79
2022/11/05 06:35:57;;;;;;;;;16.67;16.67;;;;;11.04;84.65;101502.72;4999299;28;45348;-78
2022/11/05 06:38:23;;;;;;;;;12.00;12.00;;;;;10.98;84.96;101507.66;4999413;28;45382;-78
2022/11/05 06:40:48;;;;;;;;;17.67;16.67;;;;;10.96;85.07;101506.97;4999207;28;45297;-77
2022/11/05 06:43:14;;;;;;;;;16.33;13.67;;;;;11.00;84.94;101502.19;4998511;28;52593;-78
2022/11/05 06:45:39;;;;;;;;;13.00;13.00;;;;;11.05;84.86;101509.69;4999121;28;45350;-78
2022/11/05 06:48:05;;;;;;;;;12.00;10.67;;;;;11.03;84.77;101501.03;4981586;28;45371;-77
2022/11/05 06:50:30;;;;;;;;;15.33;14.00;;;;;11.09;84.80;101508.38;4983708;28;45291;-77
2022/11/05 06:52:58;;;;;;;;;14.67;14.67;;;;;11.08;84.78;101501.41;4989065;28;47054;-77
2022/11/05 06:55:25;;;;;;;;;17.67;15.33;;;;;11.11;84.56;101509.06;4998106;28;45325;-77
2022/11/05 06:57:51;;;;;;;;;15.00;13.67;;;;;11.12;84.46;101518.72;4997845;28;45358;-77
2022/11/05 07:00:17;;;;;;;;;15.67;14.33;;;;;11.14;84.45;101532.69;4980188;28;46070;-76
2022/11/05 07:02:43;;;;;;;;;15.67;14.00;;;;;11.13;84.75;101520.38;4980911;28;47268;-76
2022/11/05 07:05:12;;;;;;;;;15.00;14.00;;;;;11.19;84.22;101530.38;4998704;28;45730;-77
2022/11/05 07:07:39;;;;;;;;;14.33;13.00;;;;;11.16;84.59;101540.53;4980817;28;45366;-78
2022/11/05 07:10:06;;;;;;;;;12.67;12.67;;;;;11.10;84.48;101526.00;4998693;28;45413;-79
2022/11/05 07:12:32;;;;;;;;;13.33;13.00;;;;;11.15;84.45;101525.53;4995562;28;45330;-79
2022/11/05 07:14:57;;;;;;;;;16.00;15.67;;;;;11.17;84.90;101537.72;4980002;28;46086;-78
2022/11/05 07:17:23;;;;;;;;;13.00;13.00;;;;;11.19;84.92;101529.53;4999059;28;45276;-78
2022/11/05 07:19:48;;;;;;;;;13.00;12.00;;;;;11.25;85.19;101547.53;4998864;28;45388;-78
2022/11/05 07:22:13;;;;;;;;;13.67;13.00;;;;;11.29;85.20;101558.72;4998286;28;47408;-77
2022/11/05 07:24:39;;;;;;;;;14.67;14.00;;;;;11.30;85.02;101545.25;4999159;28;45375;-78
2022/11/05 07:27:04;;;;;;;;;17.67;17.33;;;;;11.37;85.12;101550.75;4997416;28;45478;-78
2022/11/05 07:29:29;;;;;;;;;13.33;13.00;;;;;11.39;85.17;101548.78;4980929;28;46093;-77
2022/11/05 07:31:55;;;;;;;;;15.00;10.33;;;;;11.40;85.46;101541.63;4998438;28;52230;-77
2022/11/05 07:34:20;;;;;;;;;18.00;16.67;;;;;11.39;85.18;101540.78;4994278;28;45413;-78
2022/11/05 07:36:45;;;;;;;;;15.67;14.67;;;;;11.48;85.41;101552.31;4993753;28;45648;-76
2022/11/05 07:39:10;;;;;;;;;17.00;15.00;;;;;11.48;86.25;101553.13;5000797;28;50170;-78
2022/11/05 07:41:36;;;;;;;;;16.00;15.00;;;;;11.53;86.10;101547.34;5000203;28;49929;-78
2022/11/05 07:44:02;;;;;;;;;18.00;17.33;;;;;11.61;86.41;101541.19;5000583;28;45336;-78
2022/11/05 07:46:28;;;;;;;;;18.67;16.33;;;;;11.65;86.26;101547.88;5001553;28;45305;-79
2022/11/05 07:48:54;;;;;;;;;21.00;16.00;;;;;11.72;85.80;101537.41;5000912;28;45479;-79
2022/11/05 07:51:19;;;;;;;;;19.33;17.00;;;;;11.78;86.73;101549.22;4991908;28;45635;-77
2022/11/05 07:53:46;;;;;;;;;17.00;14.67;;;;;11.85;86.72;101560.91;4996701;28;45828;-77
2022/11/05 07:56:12;;;;;;;;;16.67;14.00;;;;;11.89;86.84;101564.06;4999576;28;45492;-76
2022/11/05 07:58:37;;;;;;;;;17.67;13.33;;;;;11.90;86.83;101561.25;4999366;28;45407;-77
2022/11/05 08:01:03;;;;;;;;;15.00;14.00;;;;;12.04;85.64;101562.47;5000716;28;46398;-77
2022/11/05 08:03:28;;;;;;;;;13.67;13.67;;;;;11.99;86.04;101557.63;5001098;28;45343;-77
2022/11/05 08:05:53;;;;;;;;;11.33;11.00;;;;;11.97;86.25;101556.94;5000875;28;45377;-77
2022/11/05 08:08:19;;;;;;;;;14.00;12.33;;;;;12.12;86.21;101558.97;4982987;28;46085;-77
2022/11/05 08:10:45;;;;;;;;;14.00;14.00;;;;;12.31;86.20;101568.53;4982951;28;48099;-77
2022/11/05 08:13:11;;;;;;;;;13.33;12.67;;;;;12.23;86.02;101565.84;5001334;28;45389;-77
2022/11/05 08:15:36;;;;;;;;;16.67;15.67;;;;;12.25;85.91;101569.19;5000266;28;45475;-77
2022/11/05 08:18:10;;;;;;;;;15.00;15.00;;;;;12.29;86.08;101565.19;4983473;28;46228;-78
2022/11/05 08:20:38;;;;;;;;;17.33;14.00;;;;;12.49;86.43;101567.53;5000897;28;45528;-76
2022/11/05 08:23:04;;;;;;;;;15.33;14.33;;;;;12.50;86.31;101561.19;4977280;28;46000;-76
2022/11/05 08:25:29;;;;;;;;;20.33;17.00;;;;;12.58;86.53;101577.19;4994317;28;45374;-78
2022/11/05 08:27:56;;;;;;;;;14.33;13.33;;;;;12.65;86.18;101581.84;4978632;28;46594;-78
2022/11/05 08:30:22;;;;;;;;;22.33;21.67;;;;;12.70;86.45;101588.34;4998349;28;47417;-76
2022/11/05 08:32:47;;;;;;;;;15.33;14.33;;;;;12.77;86.54;101585.00;5000863;28;45450;-80
2022/11/05 08:35:13;;;;;;;;;15.33;15.33;;;;;12.81;86.20;101583.69;5004886;28;45281;-79
2022/11/05 08:37:41;;;;;;;;;15.00;15.00;;;;;12.84;86.07;101575.34;5001379;28;45349;-78
2022/11/05 08:40:07;;;;;;;;;13.00;13.00;;;;;12.94;86.14;101581.31;5001027;28;45321;-78
2022/11/05 08:42:32;;;;;;;;;12.33;11.00;;;;;13.00;86.29;101583.28;5000862;28;45191;-78
2022/11/05 08:44:57;;;;;;;;;17.33;15.00;;;;;13.05;85.81;101590.78;4997202;28;45415;-78
2022/11/05 08:47:24;;;;;;;;;12.67;12.67;;;;;13.15;86.00;101595.97;4969515;28;49468;-77
2022/11/05 08:49:49;;;;;;;;;19.00;16.33;;;;;13.22;85.85;101596.94;4981375;28;47471;-79
2022/11/05 08:52:14;;;;;;;;;22.67;22.67;;;;;13.27;86.01;101596.44;4991921;28;45305;-78
2022/11/05 08:54:41;;;;;;;;;17.33;15.67;;;;;13.33;85.49;101597.56;5016129;28;45231;-78
2022/11/05 08:57:07;;;;;;;;;20.67;18.33;;;;;13.33;85.45;101590.41;5013700;28;45451;-77
2022/11/05 08:59:32;;;;;;;;;16.33;15.67;;;;;13.38;85.26;101593.38;5013420;28;45274;-77
2022/11/05 09:01:57;;;;;;;;;22.00;19.00;;;;;13.37;85.52;101594.41;5013734;28;49776;-77
2022/11/05 09:04:23;;;;;;;;;14.67;14.67;;;;;13.46;85.70;101597.88;5013116;28;45507;-78
2022/11/05 09:06:48;;;;;;;;;19.00;18.67;;;;;13.55;85.76;101603.19;5011754;28;45388;-77
2022/11/05 09:09:13;;;;;;;;;16.67;16.67;;;;;13.57;85.51;101593.19;5012498;28;45331;-77
2022/11/05 09:11:39;;;;;;;;;16.33;16.00;;;;;13.65;85.57;101584.31;4992523;28;49227;-78
2022/11/05 09:14:04;;;;;;;;;13.67;13.67;;;;;13.64;85.59;101583.47;5008303;28;45685;-77
2022/11/05 09:16:33;;;;;;;;;12.00;12.00;;;;;13.78;85.37;101589.06;4989880;28;45936;-77
2022/11/05 09:18:58;;;;;;;;;18.00;15.00;;;;;13.85;85.30;101582.88;5007699;28;45432;-77
2022/11/05 09:21:23;;;;;;;;;14.33;14.33;;;;;13.93;85.21;101584.66;5008767;28;46167;-77
2022/11/05 09:23:49;;;;;;;;;17.00;14.33;;;;;13.96;85.17;101587.00;5007829;28;45428;-77
2022/11/05 09:26:14;;;;;;;;;14.00;14.00;;;;;14.01;85.27;101578.44;5005189;28;45897;-77
2022/11/05 09:28:42;;;;;;;;;15.67;14.67;;;;;14.11;85.60;101584.41;5007159;28;45272;-77
2022/11/05 09:31:09;;;;;;;;;15.00;13.00;;;;;14.14;85.61;101570.69;5006503;28;45477;-77
2022/11/05 09:33:36;;;;;;;;;13.67;13.67;;;;;14.29;85.34;101582.41;5006072;28;45344;-77
2022/11/05 09:36:03;;;;;;;;;15.67;15.00;;;;;14.32;85.63;101574.88;5005631;28;45439;-77
2022/11/05 09:38:29;;;;;;;;;15.00;15.00;;;;;14.43;84.99;101579.00;5006358;28;45253;-76
2022/11/05 09:41:33;;;;;;;;;13.00;13.00;;;;;14.57;84.86;101590.72;5006575;28;45382;-77
2022/11/05 09:44:04;;;;;;;;;16.67;15.00;;;;;14.61;84.33;101586.66;4970185;28;45441;-77
2022/11/05 09:46:48;;;;;;;;;14.67;14.00;;;;;14.61;84.55;101581.31;5005699;28;45476;-77
2022/11/05 09:49:29;;;;;;;;;15.33;12.00;;;;;14.71;84.51;101583.75;5005116;28;45401;-77
2022/11/05 09:51:57;;;;;;;;;16.00;16.00;;;;;14.85;84.49;101586.69;5004906;28;45312;-77
2022/11/05 09:54:30;;;;;;;;;14.00;14.00;;;;;14.93;84.29;101586.59;5004163;28;45428;-77
2022/11/05 09:56:56;;;;;;;;;12.33;12.33;;;;;15.08;83.67;101583.13;4997487;28;46567;-78
2022/11/05 09:59:28;;;;;;;;;18.00;15.00;;;;;15.18;84.16;101583.66;4993519;28;45421;-77
2022/11/05 10:02:02;;;;;;;;;17.00;15.67;;;;;15.23;83.98;101580.41;5010372;28;46123;-77
2022/11/05 10:04:31;;;;;;;;;13.33;13.33;;;;;15.31;83.47;101587.53;5001937;28;45221;-77
2022/11/05 10:07:00;;;;;;;;;17.67;15.33;;;;;15.36;83.44;101587.81;5005038;28;45416;-77
2022/11/05 10:09:30;;;;;;;;;13.00;13.00;;;;;15.37;82.76;101584.13;5002463;28;46421;-77
2022/11/05 10:12:04;;;;;;;;;16.33;15.33;;;;;15.37;83.26;101582.28;5001861;28;45407;-77
2022/11/05 10:14:35;;;;;;;;;13.67;13.67;;;;;15.47;83.25;101581.97;5001831;28;45262;-77
2022/11/05 10:17:25;;;;;;;;;16.33;14.67;;;;;15.60;83.50;101601.94;5000592;28;47296;-77
2022/11/05 10:20:04;;;;;;;;;13.33;13.33;;;;;15.71;83.25;101590.72;5001220;28;46204;-77
2022/11/05 10:22:29;;;;;;;;;14.67;14.33;;;;;15.85;82.18;101588.19;4983392;28;45430;-76
2022/11/05 10:24:55;;;;;;;;;15.33;14.67;;;;;15.90;81.63;101585.78;5001343;28;45297;-76
2022/11/05 10:27:24;;;;;;;;;14.67;14.00;;;;;16.05;81.32;101587.63;5001188;28;45318;-77
2022/11/05 10:29:50;;;;;;;;;15.00;15.00;;;;;16.10;81.43;101595.94;5000715;28;46209;-77
2022/11/05 10:32:27;;;;;;;;;13.00;13.00;;;;;16.15;81.47;101583.63;5001450;28;45460;-77
2022/11/05 10:34:53;;;;;;;;;13.00;12.67;;;;;16.25;81.48;101582.47;5001657;28;45401;-76
2022/11/05 10:37:22;;;;;;;;;13.67;13.00;;;;;16.31;81.06;101576.31;5000587;28;45519;-77
2022/11/05 10:39:47;;;;;;;;;15.00;13.33;;;;;16.33;80.95;101585.00;5000317;28;46299;-76
2022/11/05 10:42:32;;;;;;;;;14.33;13.33;;;;;16.41;80.87;101587.53;4999547;28;45440;-76
2022/11/05 10:45:20;;;;;;;;;14.33;12.33;;;;;16.46;80.69;101580.78;4999437;28;45426;-77
2022/11/05 10:48:15;;;;;;;;;15.00;15.00;;;;;16.59;80.72;101593.47;4999732;28;45389;-77
2022/11/05 10:50:42;;;;;;;;;15.33;15.00;;;;;16.57;80.60;101584.78;4997911;28;45542;-77
2022/11/05 10:53:22;;;;;;;;;14.67;14.67;;;;;16.57;80.62;101584.78;4999198;28;45382;-77
2022/11/05 10:55:49;;;;;;;;;15.67;14.67;;;;;16.52;80.91;101578.16;5002421;28;45369;-77
2022/11/05 10:58:15;;;;;;;;;13.33;13.33;;;;;16.55;80.37;101584.97;4982413;28;46190;-77
2022/11/05 11:00:58;;;;;;;;;12.00;12.00;;;;;16.58;80.48;101589.97;5002614;28;46086;-77
2022/11/05 11:03:43;;;;;;;;;17.33;15.67;;;;;16.58;80.37;101587.28;5002319;28;45347;-77
2022/11/05 11:06:18;;;;;;;;;16.67;13.00;;;;;16.60;80.45;101589.78;5000603;28;45485;-76
2022/11/05 11:08:46;;;;;;;;;15.67;14.67;;;;;16.86;79.96;101589.16;4998725;28;45333;-76
2022/11/05 11:11:24;;;;;;;;;14.67;13.67;;;;;16.78;79.42;101583.94;4995877;28;45374;-76
2022/11/05 11:13:56;;;;;;;;;14.00;13.33;;;;;16.87;79.47;101581.91;4998058;28;45448;-75
2022/11/05 11:16:24;;;;;;;;;17.33;14.67;;;;;16.84;79.36;101577.78;4994785;28;45545;-76
2022/11/05 11:19:24;;;;;;;;;12.67;12.00;;;;;16.77;79.73;101584.97;4993486;28;46138;-76
2022/11/05 11:22:11;;;;;;;;;14.67;14.67;;;;;16.76;80.50;101577.94;4989444;28;45416;-76
2022/11/05 11:24:42;;;;;;;;;14.33;12.67;;;;;16.82;79.83;101579.00;4999067;28;45398;-76
2022/11/05 11:27:29;;;;;;;;;13.67;13.67;;;;;16.83;80.03;101578.81;4998839;28;45521;-75
2022/11/05 11:29:57;;;;;;;;;19.67;18.67;;;;;16.89;79.59;101583.41;5001891;28;45344;-75
2022/11/05 11:32:27;;;;;;;;;19.00;19.00;;;;;17.01;78.94;101578.31;4984734;28;48262;-75
2022/11/05 11:34:54;;;;;;;;;19.33;19.33;;;;;17.04;78.60;101577.91;5002502;28;45401;-75
2022/11/05 11:37:30;;;;;;;;;19.67;19.00;;;;;17.01;78.72;101566.75;5002247;28;45269;-75
2022/11/05 11:40:17;;;;;;;;;17.67;17.67;;;;;17.01;78.09;101556.84;5002396;28;45273;-76
2022/11/05 11:42:46;;;;;;;;;20.33;18.00;;;;;17.07;78.34;101557.94;4991834;28;46643;-76
2022/11/05 11:45:19;;;;;;;;;22.33;21.33;;;;;17.07;78.21;101554.41;5007688;28;45355;-76
2022/11/05 11:47:48;;;;;;;;;26.00;23.67;;;;;17.02;78.48;101560.31;5003254;28;45295;-77
2022/11/05 11:50:33;;;;;;;;;23.33;22.00;;;;;17.02;78.85;101561.16;5001052;28;47132;-77
2022/11/05 11:53:16;;;;;;;;;23.33;23.33;;;;;17.06;79.74;101556.22;4981241;28;48496;-76
2022/11/05 11:55:53;;;;;;;;;23.67;23.00;;;;;17.04;79.31;101553.72;4996628;28;45289;-76
2022/11/05 11:58:19;;;;;;;;;19.00;17.67;;;;;16.94;78.56;101542.50;5001157;28;45304;-76
2022/11/05 12:00:56;;;;;;;;;18.33;14.67;;;;;16.95;79.04;101543.34;5000044;28;45385;-76
2022/11/05 12:03:50;;;;;;;;;13.67;13.33;;;;;17.03;78.72;101546.72;4972581;28;48700;-76
2022/11/05 12:07:14;;;;;;;;;15.33;14.00;;;;;17.16;78.93;101547.84;5003682;28;45339;-76